createdAt,value
2019-02-20T00:02:11.105Z,6.60
2019-02-20T00:04:41.527Z,6.60
2019-02-20T00:07:10.733Z,6.60
2019-02-20T00:09:39.887Z,6.50
2019-02-20T00:12:09.013Z,6.50
2019-02-20T00:14:38.152Z,6.50
2019-02-20T00:17:07.294Z,6.50
2019-02-20T00:19:36.357Z,6.50
2019-02-20T00:22:05.561Z,6.50
2019-02-20T00:24:34.617Z,6.60
2019-02-20T00:27:03.793Z,6.60
2019-02-20T00:29:32.839Z,6.60
2019-02-20T00:32:01.888Z,6.60
2019-02-20T00:34:30.990Z,6.70
2019-02-20T00:37:00.124Z,6.70
2019-02-20T00:39:29.129Z,6.70
2019-02-20T00:41:58.159Z,6.70
2019-02-20T00:44:36.530Z,6.70
2019-02-20T00:47:33.865Z,6.70
2019-02-20T00:50:03.190Z,6.70
2019-02-20T00:52:49.574Z,6.70
2019-02-20T00:55:12.875Z,6.70
2019-02-20T00:57:42.141Z,6.70
2019-02-20T01:00:11.978Z,6.80
2019-02-20T01:02:41.113Z,6.90
2019-02-20T01:05:10.344Z,6.80
2019-02-20T01:07:39.903Z,6.80
2019-02-20T01:10:09.279Z,6.80
2019-02-20T01:12:38.382Z,6.80
2019-02-20T01:15:08.009Z,6.80
2019-02-20T01:17:37.049Z,6.80
2019-02-20T01:20:06.596Z,6.80
2019-02-20T01:22:35.738Z,6.70
2019-02-20T01:25:05.614Z,6.70
2019-02-20T01:27:34.777Z,6.70
2019-02-20T01:30:04.113Z,6.80
2019-02-20T01:32:33.189Z,6.70
2019-02-20T01:35:02.257Z,6.70
2019-02-20T01:37:31.305Z,6.70
2019-02-20T01:40:00.357Z,6.70
2019-02-20T01:42:29.364Z,6.70
2019-02-20T01:44:58.439Z,6.70
2019-02-20T01:47:27.554Z,6.70
2019-02-20T01:49:56.672Z,6.80
2019-02-20T01:52:25.769Z,6.80
2019-02-20T01:54:54.691Z,6.80
2019-02-20T01:57:23.695Z,6.80
2019-02-20T01:59:52.849Z,6.80
2019-02-20T02:02:21.960Z,6.80
2019-02-20T02:04:51.146Z,6.70
2019-02-20T02:07:20.401Z,6.70
2019-02-20T02:09:49.507Z,6.70
2019-02-20T02:12:18.654Z,6.70
2019-02-20T02:14:47.694Z,6.80
2019-02-20T02:17:16.798Z,6.80
2019-02-20T02:19:45.905Z,6.80
2019-02-20T02:22:15.017Z,6.80
2019-02-20T02:24:44.405Z,6.80
2019-02-20T02:27:13.869Z,6.80
2019-02-20T02:29:43.050Z,6.80
2019-02-20T02:32:12.329Z,6.80
2019-02-20T02:34:41.445Z,6.70
2019-02-20T02:37:10.569Z,6.70
2019-02-20T02:39:39.719Z,6.70
2019-02-20T02:42:08.857Z,6.70
2019-02-20T02:44:37.843Z,6.70
2019-02-20T02:47:06.870Z,6.70
2019-02-20T02:49:35.929Z,6.70
2019-02-20T02:52:05.031Z,6.70
2019-02-20T02:54:34.129Z,6.70
2019-02-20T02:57:03.222Z,6.70
2019-02-20T02:59:32.303Z,6.70
2019-02-20T03:02:01.411Z,6.60
2019-02-20T03:04:30.400Z,6.60
2019-02-20T03:06:59.396Z,6.50
2019-02-20T03:09:28.489Z,6.50
2019-02-20T03:11:57.516Z,6.50
2019-02-20T03:14:26.524Z,6.50
2019-02-20T03:16:55.538Z,6.50
2019-02-20T03:19:24.650Z,6.50
2019-02-20T03:21:53.726Z,6.50
2019-02-20T03:24:22.745Z,6.50
2019-02-20T03:26:51.786Z,6.40
2019-02-20T03:29:20.898Z,6.40
2019-02-20T03:31:50.016Z,6.40
2019-02-20T03:34:19.139Z,6.40
2019-02-20T03:36:48.123Z,6.40
2019-02-20T03:39:17.217Z,6.40
2019-02-20T03:41:46.334Z,6.40
2019-02-20T03:44:15.406Z,6.40
2019-02-20T03:46:44.420Z,6.50
2019-02-20T03:49:13.473Z,6.50
2019-02-20T03:51:42.662Z,6.40
2019-02-20T03:54:11.685Z,6.50
2019-02-20T03:56:40.706Z,6.50
2019-02-20T03:59:09.977Z,6.50
2019-02-20T04:01:58.201Z,6.60
2019-02-20T04:04:27.201Z,6.60
2019-02-20T04:06:56.297Z,6.60
2019-02-20T04:09:25.341Z,6.60
2019-02-20T04:11:54.303Z,6.60
2019-02-20T04:14:23.373Z,6.60
2019-02-20T04:16:52.369Z,6.70
2019-02-20T04:19:21.433Z,6.70
2019-02-20T04:21:51.427Z,6.70
2019-02-20T04:24:20.456Z,6.70
2019-02-20T04:26:49.474Z,6.80
2019-02-20T04:29:18.546Z,6.70
2019-02-20T04:31:47.542Z,6.80
2019-02-20T04:34:16.655Z,6.80
2019-02-20T04:36:45.664Z,6.80
2019-02-20T04:39:14.691Z,6.80
2019-02-20T04:41:43.643Z,6.80
2019-02-20T04:44:12.737Z,6.80
2019-02-20T04:46:41.934Z,6.90
2019-02-20T04:49:10.946Z,6.80
2019-02-20T04:51:39.981Z,6.80
2019-02-20T04:54:13.351Z,6.80
2019-02-20T04:56:39.645Z,6.90
2019-02-20T04:59:08.737Z,6.90
2019-02-20T05:01:37.752Z,7.00
2019-02-20T05:04:06.762Z,7.00
2019-02-20T05:06:35.787Z,7.00
2019-02-20T05:09:06.006Z,6.90
2019-02-20T05:11:35.016Z,7.00
2019-02-20T05:14:04.123Z,7.00
2019-02-20T05:16:33.290Z,7.10
2019-02-20T05:19:02.260Z,7.10
2019-02-20T05:21:31.335Z,7.10
2019-02-20T05:24:00.525Z,7.10
2019-02-20T05:26:29.531Z,7.00
2019-02-20T05:28:58.558Z,7.00
2019-02-20T05:31:27.576Z,7.10
2019-02-20T05:33:56.604Z,7.00
2019-02-20T05:36:25.625Z,7.10
2019-02-20T05:38:54.706Z,7.10
2019-02-20T05:41:23.767Z,7.10
2019-02-20T05:43:52.837Z,7.10
2019-02-20T05:46:21.950Z,7.10
2019-02-20T05:48:51.022Z,7.00
2019-02-20T05:51:20.088Z,7.10
2019-02-20T05:53:49.090Z,7.10
2019-02-20T05:56:18.169Z,7.10
2019-02-20T05:58:47.339Z,7.10
2019-02-20T06:01:16.305Z,7.10
2019-02-20T06:03:45.731Z,7.10
2019-02-20T06:06:14.772Z,7.10
2019-02-20T06:08:43.809Z,7.10
2019-02-20T06:11:15.236Z,7.20
2019-02-20T06:13:43.553Z,7.20
2019-02-20T06:16:13.746Z,7.20
2019-02-20T06:18:42.827Z,7.20
2019-02-20T06:21:11.907Z,7.20
2019-02-20T06:23:40.963Z,7.20
2019-02-20T06:26:10.056Z,7.20
2019-02-20T06:28:39.048Z,7.20
2019-02-20T06:31:08.024Z,7.20
2019-02-20T06:33:37.014Z,7.20
2019-02-20T06:36:05.981Z,7.20
2019-02-20T06:38:35.062Z,7.20
2019-02-20T06:41:04.111Z,7.30
2019-02-20T06:43:33.171Z,7.30
2019-02-20T06:46:02.149Z,7.30
2019-02-20T06:48:31.158Z,7.40
2019-02-20T06:51:00.245Z,7.40
2019-02-20T06:53:29.292Z,7.40
2019-02-20T06:55:58.673Z,7.40
2019-02-20T06:58:27.668Z,7.40
2019-02-20T07:00:56.813Z,7.40
2019-02-20T07:03:25.824Z,7.30
2019-02-20T07:06:29.424Z,7.40
2019-02-20T07:09:36.542Z,7.40
2019-02-20T07:12:25.706Z,7.40
2019-02-20T07:15:27.416Z,7.40
2019-02-20T07:18:34.009Z,7.40
2019-02-20T07:21:22.042Z,7.40
2019-02-20T07:24:09.776Z,7.40
2019-02-20T07:27:27.935Z,7.50
2019-02-20T07:30:09.292Z,7.50
2019-02-20T07:32:38.463Z,7.60
2019-02-20T07:35:09.769Z,7.60
2019-02-20T07:37:38.977Z,7.60
2019-02-20T07:40:10.479Z,7.70
2019-02-20T07:42:40.298Z,7.70
2019-02-20T07:45:11.766Z,7.60
2019-02-20T07:47:40.813Z,7.60
2019-02-20T07:50:11.810Z,7.50
2019-02-20T07:52:41.045Z,7.50
2019-02-20T07:55:13.658Z,7.40
2019-02-20T07:57:41.253Z,7.40
2019-02-20T08:00:12.153Z,7.40
2019-02-20T08:02:41.238Z,7.50
2019-02-20T08:05:10.532Z,7.50
2019-02-20T08:07:39.681Z,7.60
2019-02-20T08:10:10.660Z,7.60
2019-02-20T08:12:39.658Z,7.60
2019-02-20T08:15:10.186Z,7.50
2019-02-20T08:17:39.403Z,7.50
2019-02-20T08:20:10.003Z,7.40
2019-02-20T08:22:39.070Z,7.30
2019-02-20T08:25:08.504Z,7.30
2019-02-20T08:27:37.596Z,7.30
2019-02-20T08:30:10.387Z,7.30
2019-02-20T08:32:40.461Z,7.30
2019-02-20T08:35:10.040Z,7.20
2019-02-20T08:37:39.221Z,7.20
2019-02-20T08:40:10.826Z,7.20
2019-02-20T08:42:40.722Z,7.30
2019-02-20T08:45:10.608Z,7.30
2019-02-20T08:47:39.754Z,7.40
2019-02-20T08:50:10.042Z,7.60
2019-02-20T08:52:40.136Z,7.70
2019-02-20T08:55:09.334Z,7.70
2019-02-20T08:57:38.365Z,7.80
2019-02-20T09:00:09.811Z,7.80
2019-02-20T09:02:40.024Z,7.90
2019-02-20T09:05:09.487Z,8.00
2019-02-20T09:07:38.601Z,8.10
2019-02-20T09:10:08.294Z,8.20
2019-02-20T09:12:37.471Z,8.30
2019-02-20T09:15:07.481Z,8.40
2019-02-20T09:17:37.952Z,8.50
2019-02-20T09:20:08.078Z,8.60
2019-02-20T09:22:37.147Z,8.70
2019-02-20T09:25:07.657Z,8.70
2019-02-20T09:27:38.313Z,8.80
2019-02-20T09:30:09.807Z,8.70
2019-02-20T09:32:39.758Z,8.70
2019-02-20T09:35:09.496Z,8.60
2019-02-20T09:37:38.700Z,8.60
2019-02-20T09:40:10.146Z,8.80
2019-02-20T09:42:40.969Z,8.90
2019-02-20T09:45:10.176Z,8.80
2019-02-20T09:47:39.317Z,8.90
2019-02-20T09:50:08.830Z,8.90
2019-02-20T09:52:38.077Z,9.10
2019-02-20T09:55:08.277Z,9.20
2019-02-20T09:57:37.267Z,9.20
2019-02-20T10:00:09.330Z,9.10
2019-02-20T10:02:38.340Z,9.10
2019-02-20T10:05:08.021Z,9.10
2019-02-20T10:07:37.221Z,9.10
2019-02-20T10:10:12.152Z,9.20
2019-02-20T10:12:41.341Z,9.30
2019-02-20T10:15:11.527Z,9.20
2019-02-20T10:17:41.034Z,9.30
2019-02-20T10:20:10.494Z,9.30
2019-02-20T10:22:39.699Z,9.10
2019-02-20T10:25:08.913Z,9.10
2019-02-20T10:27:37.997Z,9.20
2019-02-20T10:30:10.110Z,9.30
2019-02-20T10:32:39.394Z,9.40
2019-02-20T10:35:08.876Z,9.50
2019-02-20T10:37:37.912Z,9.60
2019-02-20T10:40:07.408Z,9.50
2019-02-20T10:42:36.458Z,9.50
2019-02-20T10:45:05.696Z,9.50
2019-02-20T10:47:34.826Z,9.50
2019-02-20T10:50:04.281Z,9.50
2019-02-20T10:52:33.320Z,9.60
2019-02-20T10:55:02.337Z,9.80
2019-02-20T10:57:31.445Z,9.70
2019-02-20T11:00:00.481Z,9.60
2019-02-20T11:02:30.114Z,9.50
2019-02-20T11:04:59.175Z,9.70
2019-02-20T11:07:28.382Z,9.80
2019-02-20T11:09:57.476Z,9.70
2019-02-20T11:12:26.528Z,9.80
2019-02-20T11:14:55.591Z,9.90
2019-02-20T11:17:24.667Z,10.00
2019-02-20T11:19:53.726Z,10.10
2019-02-20T11:22:23.255Z,10.10
2019-02-20T11:24:53.821Z,10.20
2019-02-20T11:27:22.964Z,10.50
2019-02-20T11:29:51.975Z,10.70
2019-02-20T11:32:21.082Z,10.70
2019-02-20T11:34:50.360Z,10.80
2019-02-20T11:37:19.449Z,10.70
2019-02-20T11:39:48.692Z,10.70
2019-02-20T11:42:17.796Z,10.70
2019-02-20T11:44:46.872Z,10.80
2019-02-20T11:47:15.882Z,10.80
2019-02-20T11:49:44.981Z,10.90
2019-02-20T11:52:14.123Z,10.90
2019-02-20T11:54:43.150Z,10.80
2019-02-20T11:57:13.936Z,10.80
2019-02-20T11:59:43.134Z,10.70
2019-02-20T12:02:12.244Z,10.40
2019-02-20T12:04:41.221Z,10.50
2019-02-20T12:07:10.394Z,10.70
2019-02-20T12:09:39.589Z,10.70
2019-02-20T12:12:09.468Z,10.70
2019-02-20T12:14:38.652Z,10.50
2019-02-20T12:17:07.742Z,10.50
2019-02-20T12:19:36.750Z,10.70
2019-02-20T12:22:05.924Z,10.80
2019-02-20T12:24:34.954Z,11.00
2019-02-20T12:27:04.253Z,11.20
2019-02-20T12:29:33.349Z,11.40
2019-02-20T12:32:02.351Z,11.50
2019-02-20T12:34:31.447Z,11.50
2019-02-20T12:37:00.516Z,11.30
2019-02-20T12:39:29.592Z,11.10
2019-02-20T12:41:58.701Z,10.80
2019-02-20T12:44:27.816Z,10.70
2019-02-20T12:46:56.875Z,10.70
2019-02-20T12:49:25.901Z,10.60
2019-02-20T12:51:55.073Z,10.50
2019-02-20T12:54:24.214Z,10.60
2019-02-20T12:56:53.186Z,10.60
2019-02-20T12:59:22.309Z,10.70
2019-02-20T13:01:52.428Z,10.90
2019-02-20T13:04:21.485Z,11.00
2019-02-20T13:06:59.217Z,11.10
2019-02-20T13:09:22.144Z,11.00
2019-02-20T13:11:51.248Z,11.20
2019-02-20T13:14:20.281Z,11.30
2019-02-20T13:16:49.733Z,11.20
2019-02-20T13:19:18.802Z,11.00
2019-02-20T13:21:47.920Z,11.20
2019-02-20T13:24:17.045Z,11.40
2019-02-20T13:26:52.794Z,11.70
2019-02-20T13:29:16.757Z,12.10
2019-02-20T13:31:48.112Z,12.40
2019-02-20T13:34:17.185Z,12.10
2019-02-20T13:36:46.240Z,11.40
2019-02-20T13:39:15.481Z,11.30
2019-02-20T13:41:44.563Z,11.40
2019-02-20T13:44:13.784Z,11.40
2019-02-20T13:46:43.131Z,11.30
2019-02-20T13:49:12.691Z,11.40
2019-02-20T13:51:41.776Z,11.40
2019-02-20T13:54:10.838Z,11.30
2019-02-20T13:56:39.962Z,11.10
2019-02-20T13:59:09.083Z,10.90
2019-02-20T14:01:38.278Z,10.80
2019-02-20T14:04:07.462Z,10.80
2019-02-20T14:06:36.492Z,10.70
2019-02-20T14:09:06.679Z,10.70
2019-02-20T14:11:35.838Z,10.50
2019-02-20T14:14:04.969Z,10.50
2019-02-20T14:16:34.146Z,10.50
2019-02-20T14:19:03.613Z,10.60
2019-02-20T14:21:33.014Z,10.60
2019-02-20T14:24:02.366Z,10.70
2019-02-20T14:26:31.490Z,10.70
2019-02-20T14:29:02.509Z,10.60
2019-02-20T14:31:31.402Z,10.70
2019-02-20T14:34:00.417Z,10.60
2019-02-20T14:36:32.442Z,10.60
2019-02-20T14:39:01.516Z,10.60
2019-02-20T14:41:31.331Z,10.70
2019-02-20T14:44:00.348Z,10.50
2019-02-20T14:46:29.829Z,10.50
2019-02-20T14:48:58.802Z,10.50
2019-02-20T14:51:28.135Z,10.50
2019-02-20T14:53:57.269Z,10.60
2019-02-20T14:56:26.389Z,10.70
2019-02-20T14:58:55.469Z,10.70
2019-02-20T15:01:24.638Z,10.70
2019-02-20T15:03:53.742Z,10.70
2019-02-20T15:06:22.933Z,10.60
2019-02-20T15:08:52.064Z,10.70
2019-02-20T15:11:21.810Z,10.60
2019-02-20T15:13:50.972Z,10.60
2019-02-20T15:16:20.132Z,10.60
2019-02-20T15:18:49.120Z,10.60
2019-02-20T15:21:18.172Z,10.60
2019-02-20T15:23:49.256Z,10.60
2019-02-20T15:26:18.317Z,10.60
2019-02-20T15:28:47.396Z,10.60
2019-02-20T15:31:16.426Z,10.50
2019-02-20T15:33:45.554Z,10.50
2019-02-20T15:36:14.612Z,10.50
2019-02-20T15:38:44.070Z,10.50
2019-02-20T15:41:13.160Z,10.40
2019-02-20T15:43:42.267Z,10.40
2019-02-20T15:46:11.404Z,10.40
2019-02-20T15:48:41.378Z,10.40
2019-02-20T15:51:10.476Z,10.40
2019-02-20T15:53:39.954Z,10.40
2019-02-20T15:56:09.261Z,10.40
2019-02-20T15:58:39.275Z,10.40
2019-02-20T16:01:11.413Z,10.40
2019-02-20T16:03:40.390Z,10.40
2019-02-20T16:06:09.615Z,10.40
2019-02-20T16:08:38.613Z,10.40
2019-02-20T16:11:07.919Z,10.30
2019-02-20T16:13:37.482Z,10.30
2019-02-20T16:16:06.602Z,10.30
2019-02-20T16:18:35.785Z,10.20
2019-02-20T16:21:05.094Z,10.20
2019-02-20T16:23:34.174Z,10.10
2019-02-20T16:26:03.518Z,10.10
2019-02-20T16:28:34.066Z,10.00
2019-02-20T16:31:03.300Z,10.00
2019-02-20T16:33:32.460Z,10.00
2019-02-20T16:36:01.496Z,10.00
2019-02-20T16:38:30.579Z,10.00
2019-02-20T16:41:00.387Z,10.00
2019-02-20T16:43:29.457Z,10.00
2019-02-20T16:45:58.809Z,10.00
2019-02-20T16:48:27.927Z,10.00
2019-02-20T16:50:57.117Z,9.90
2019-02-20T16:53:27.256Z,9.90
2019-02-20T16:55:59.609Z,9.90
2019-02-20T16:58:28.625Z,9.90
2019-02-20T17:00:57.785Z,9.90
2019-02-20T17:03:26.914Z,9.90
2019-02-20T17:05:56.107Z,9.90
2019-02-20T17:08:25.221Z,9.90
2019-02-20T17:10:54.805Z,9.90
2019-02-20T17:13:24.049Z,9.90
2019-02-20T17:15:54.183Z,9.90
2019-02-20T17:18:28.622Z,9.90
2019-02-20T17:20:57.713Z,9.80
2019-02-20T17:23:26.994Z,9.80
2019-02-20T17:25:56.546Z,9.80
2019-02-20T17:28:25.717Z,9.70
2019-02-20T17:30:54.809Z,9.70
2019-02-20T17:33:23.932Z,9.70
2019-02-20T17:35:53.137Z,9.60
2019-02-20T17:38:22.245Z,9.60
2019-02-20T17:40:51.753Z,9.60
2019-02-20T17:43:20.974Z,9.60
2019-02-20T17:45:50.205Z,9.60
2019-02-20T17:48:19.414Z,9.60
2019-02-20T17:50:48.604Z,9.60
2019-02-20T17:53:17.702Z,9.60
2019-02-20T17:55:47.138Z,9.60
2019-02-20T17:58:16.289Z,9.60
2019-02-20T18:00:45.738Z,9.60
2019-02-20T18:03:15.042Z,9.60
2019-02-20T18:05:44.289Z,9.60
2019-02-20T18:08:13.437Z,9.60
2019-02-20T18:10:44.374Z,9.70
2019-02-20T18:13:13.513Z,9.70
2019-02-20T18:15:42.615Z,9.70
2019-02-20T18:18:11.773Z,9.70
2019-02-20T18:20:40.930Z,9.60
2019-02-20T18:23:10.694Z,9.60
2019-02-20T18:25:39.809Z,9.60
2019-02-20T18:28:08.991Z,9.70
2019-02-20T18:30:38.359Z,9.70
2019-02-20T18:33:07.559Z,9.70
2019-02-20T18:35:36.809Z,9.70
2019-02-20T18:38:06.225Z,9.70
2019-02-20T18:40:35.368Z,9.60
2019-02-20T18:43:06.322Z,9.60
2019-02-20T18:45:35.522Z,9.50
2019-02-20T18:48:04.792Z,9.60
2019-02-20T18:50:33.959Z,9.60
2019-02-20T18:53:03.098Z,9.50
2019-02-20T18:55:32.260Z,9.50
2019-02-20T18:58:02.464Z,9.50
2019-02-20T19:00:32.033Z,9.50
2019-02-20T19:03:01.380Z,9.50
2019-02-20T19:05:30.631Z,9.50
2019-02-20T19:07:59.859Z,9.50
2019-02-20T19:10:38.314Z,9.50
2019-02-20T19:13:41.890Z,9.50
2019-02-20T19:16:48.210Z,9.40
2019-02-20T19:19:39.318Z,9.40
2019-02-20T19:22:51.742Z,9.40
2019-02-20T19:26:17.592Z,9.30
2019-02-20T19:29:08.373Z,9.30
2019-02-20T19:32:21.670Z,9.30
2019-02-20T19:35:16.828Z,9.30
2019-02-20T19:38:28.942Z,9.30
2019-02-20T19:41:49.828Z,9.30
2019-02-20T19:45:01.277Z,9.30
2019-02-20T19:47:56.192Z,9.30
2019-02-20T19:50:35.534Z,9.20
2019-02-20T19:53:42.403Z,9.20
2019-02-20T19:56:38.400Z,9.20
2019-02-20T19:59:37.227Z,9.20
2019-02-20T20:02:44.626Z,9.20
2019-02-20T20:05:50.415Z,9.20
2019-02-20T20:08:35.721Z,9.20
2019-02-20T20:11:32.861Z,9.20
2019-02-20T20:14:23.999Z,9.20
2019-02-20T20:17:24.155Z,9.20
2019-02-20T20:20:24.910Z,9.20
2019-02-20T20:23:36.218Z,9.20
2019-02-20T20:26:25.920Z,9.10
2019-02-20T20:29:32.042Z,9.10
2019-02-20T20:32:25.303Z,9.10
2019-02-20T20:35:07.109Z,9.10
2019-02-20T20:38:23.932Z,9.10
2019-02-20T20:41:24.377Z,9.00
2019-02-20T20:44:12.450Z,9.10
2019-02-20T20:47:36.266Z,9.10
2019-02-20T20:50:45.145Z,9.10
2019-02-20T20:53:49.839Z,9.10
2019-02-20T20:57:05.833Z,9.10
2019-02-20T20:59:46.789Z,9.10
2019-02-20T21:02:47.010Z,9.00
2019-02-20T21:06:02.194Z,9.00
2019-02-20T21:09:02.812Z,9.00
2019-02-20T21:12:31.460Z,9.00
2019-02-20T21:15:38.505Z,9.00
2019-02-20T21:18:33.016Z,8.90
2019-02-20T21:21:16.293Z,8.90
2019-02-20T21:24:39.362Z,8.80
2019-02-20T21:27:35.897Z,8.80
2019-02-20T21:30:43.615Z,8.90
2019-02-20T21:33:56.837Z,8.80
2019-02-20T21:36:49.712Z,8.80
2019-02-20T21:39:34.116Z,8.80
2019-02-20T21:42:43.879Z,8.70
2019-02-20T21:46:08.723Z,8.60
2019-02-20T21:49:18.464Z,8.60
2019-02-20T21:52:13.609Z,8.50
2019-02-20T21:55:10.358Z,8.50
2019-02-20T21:58:38.937Z,8.60
2019-02-20T22:01:52.914Z,8.60
2019-02-20T22:04:31.906Z,8.50
2019-02-20T22:07:32.484Z,8.50
2019-02-20T22:10:35.615Z,8.50
2019-02-20T22:14:15.218Z,8.50
2019-02-20T22:17:45.925Z,8.50
2019-02-20T22:21:08.277Z,8.40
2019-02-20T22:24:22.658Z,8.30
2019-02-20T22:27:20.214Z,8.30
2019-02-20T22:30:19.067Z,8.20
2019-02-20T22:33:09.980Z,8.20
2019-02-20T22:36:15.353Z,8.10
2019-02-20T22:38:57.128Z,8.10
2019-02-20T22:42:06.298Z,8.10
2019-02-20T22:45:03.300Z,8.10
2019-02-20T22:48:05.092Z,8.10
2019-02-20T22:51:11.504Z,8.10
2019-02-20T22:54:11.991Z,8.10
2019-02-20T22:57:24.708Z,8.00
2019-02-20T23:00:22.428Z,8.00
2019-02-20T23:03:07.004Z,8.00
2019-02-20T23:06:16.846Z,8.00
2019-02-20T23:09:09.321Z,8.00
2019-02-20T23:12:04.573Z,8.00
2019-02-20T23:14:56.579Z,8.10
2019-02-20T23:17:27.120Z,8.10
2019-02-20T23:19:56.814Z,8.10
2019-02-20T23:22:25.910Z,8.10
2019-02-20T23:24:55.083Z,8.20
2019-02-20T23:27:24.144Z,8.20
2019-02-20T23:29:53.271Z,8.20
2019-02-20T23:32:22.262Z,8.20
2019-02-20T23:34:51.388Z,8.20
2019-02-20T23:37:20.454Z,8.20
2019-02-20T23:39:49.544Z,8.20
2019-02-20T23:42:18.736Z,8.10
2019-02-20T23:44:48.111Z,8.10
2019-02-20T23:47:17.101Z,8.10
2019-02-20T23:49:46.282Z,8.10
2019-02-20T23:52:15.271Z,8.10
2019-02-20T23:54:44.385Z,8.10
2019-02-20T23:57:13.411Z,8.10
2019-02-20T23:59:42.508Z,8.10
